Pagina principală
METAR-TAF:

METAR-TAF

Aeroporturi :

Burley, Idaho, Statele Unite ale Americii

Latitudine: 42-32-33N, longitudine: 113-46-17W, elevație: 1265 m

Observații meteo curente

Raportul a fost făcut în urmă cu 48 de minute, la 23:53 UTC
Vânt calm
Temperatură 36°C
Umiditate 24%
Presiune 1018 hPa
Vizibilitate: 16.1 km
Cer senin

METAR: KBYI 232353Z AUTO 00000KT 10SM CLR 36/12 A3007 RMK AO2 SLP130 T03560117 10356 20283 58012

Ora: 18:41 (00:41 UTC)

Prognoză

Raportul a fost făcut în urmă cu 1 oră și 21 de minute, la 23:20 UTC
Prognoză valabilă de la 24 ora 00 UTC la 24 ora 24 UTC
Vânt 3 kt din direcții variabile
Vizibilitate: 10 km
Cer senin
De la 24 ora 2100 UTC
Vânt 12 kt de la Sud/Sud-vest cu rafale de până la 22 kt
Vizibilitate: 8.0 km
Nori puțini la o înălțime de 9000 picior
Nori fragmentați la o înălțime de 11000 picior, Cumulonimbus.
oraj, ploaie slabă,

TAF: KBYI 232320Z 2400/2424 VRB03KT P6SM SKC FM242100 20012G22KT 5SM -TSRA FEW090 BKN110CB

Observații și prognoze meteo pentru peste 4.000 de aeroporturi (rapoarte METAR și TAF).

Stațiile disponibile sunt reprezentate pe hartă prin puncte galbene și roșii.

Țineți indicatorul mouse-ului pe punctul dorit pentru a vedea denumirea stației.

Apoi, faceți clic pentru a vedea observațiile și prognozele meteorologice.

Pentru a schimba harta: Pentru mărire, faceți clic pe butoanele verzi cu cruce neagră; pentru micșorare, pe butonul verde cu o liniuță; pentru hărți învecinate, pe săgețile verzi.


METAR-TAF: